Time;durP1;ratioP1;P1;durP2;ratioP2;P2;SDS_P1;SDS_P2;PMS_P1;PMS_P2;Temp;Humidity;BMP_temperature;BMP_pressure;BME280_temperature;BME280_humidity;BME280_pressure;Samples;Min_cycle;Max_cycle;Signal;HPM_P1;HPM_P2
2021/01/17 00:00:32;;;;;;;66.77;23.07;;;-15.10;68.80;;;;;;4976725;28;20031;-84
2021/01/17 00:02:58;;;;;;;57.92;21.73;;;-15.00;69.00;;;;;;4958752;28;20471;-84
2021/01/17 00:05:26;;;;;;;57.53;21.70;;;-15.00;69.10;;;;;;4959953;28;20046;-89
2021/01/17 00:07:52;;;;;;;50.23;19.53;;;-15.00;69.00;;;;;;4961161;28;20026;-91
2021/01/17 00:10:24;;;;;;;52.10;19.70;;;-15.00;69.10;;;;;;4978192;28;20026;-92
2021/01/17 00:12:51;;;;;;;47.97;19.88;;;-15.00;69.20;;;;;;4978167;28;20027;-92
2021/01/17 00:15:17;;;;;;;95.70;30.13;;;-15.00;69.20;;;;;;4961201;28;20027;-92
2021/01/17 00:17:44;;;;;;;87.83;32.13;;;-15.00;69.80;;;;;;4978531;28;20030;-92
2021/01/17 00:20:19;;;;;;;100.60;37.83;;;-14.90;69.30;;;;;;4979600;28;20015;-92
2021/01/17 00:22:45;;;;;;;93.33;33.27;;;-14.90;69.20;;;;;;4983787;28;20030;-93
2021/01/17 00:25:13;;;;;;;115.17;38.80;;;-15.00;69.10;;;;;;4964533;28;20363;-85
2021/01/17 00:27:39;;;;;;;108.17;38.60;;;-14.90;69.10;;;;;;4959392;28;20389;-85
2021/01/17 00:30:08;;;;;;;97.77;32.23;;;-15.00;69.00;;;;;;4962310;28;20027;-87
2021/01/17 00:32:35;;;;;;;67.63;23.60;;;-15.00;69.00;;;;;;4976984;28;20049;-85
2021/01/17 00:35:02;;;;;;;68.50;23.30;;;-15.00;69.10;;;;;;4958657;28;20041;-86
2021/01/17 00:37:29;;;;;;;60.83;22.90;;;-15.00;69.20;;;;;;4957524;28;20030;-86
2021/01/17 00:39:54;;;;;;;68.77;23.37;;;-15.00;69.30;;;;;;4975806;28;20027;-85
2021/01/17 00:42:20;;;;;;;59.00;21.47;;;-15.00;69.30;;;;;;4957701;28;20018;-85
2021/01/17 00:44:46;;;;;;;64.33;23.87;;;-15.00;69.30;;;;;;4975457;28;20113;-86
2021/01/17 00:47:13;;;;;;;98.03;35.07;;;-15.00;69.40;;;;;;4958265;28;20026;-86
2021/01/17 00:49:39;;;;;;;100.13;34.77;;;-15.00;69.50;;;;;;4959228;28;20399;-86
2021/01/17 00:52:05;;;;;;;116.87;39.37;;;-15.00;69.40;;;;;;4959069;28;20027;-87
2021/01/17 00:54:31;;;;;;;89.13;34.70;;;-15.00;69.40;;;;;;4957738;28;20019;-86
2021/01/17 00:57:04;;;;;;;73.97;25.20;;;-15.00;69.40;;;;;;4976429;28;20077;-87
2021/01/17 00:59:30;;;;;;;67.07;23.93;;;-15.00;69.40;;;;;;4959471;28;20030;-87
2021/01/17 01:01:56;;;;;;;79.53;28.50;;;-15.00;69.50;;;;;;4959181;28;20117;-87
2021/01/17 01:04:21;;;;;;;86.27;33.50;;;-15.00;69.60;;;;;;4959329;28;20089;-85
2021/01/17 01:06:51;;;;;;;78.47;30.77;;;-14.90;69.60;;;;;;4976272;28;20019;-86
2021/01/17 01:09:17;;;;;;;81.93;28.70;;;-15.00;69.60;;;;;;4958821;28;20031;-85
2021/01/17 01:11:42;;;;;;;81.33;28.97;;;-14.90;69.70;;;;;;4958930;28;20027;-85
2021/01/17 01:14:08;;;;;;;75.10;25.07;;;-14.90;69.80;;;;;;4958598;28;20030;-84
2021/01/17 01:16:34;;;;;;;67.10;23.43;;;-14.90;69.80;;;;;;4975499;28;20026;-85
2021/01/17 01:19:01;;;;;;;68.27;21.43;;;-14.90;69.90;;;;;;4976266;28;20355;-84
2021/01/17 01:21:34;;;;;;;59.93;22.17;;;-14.90;69.90;;;;;;4959519;28;20034;-83
2021/01/17 01:24:01;;;;;;;57.67;21.63;;;-14.90;69.90;;;;;;4958712;28;20485;-84
2021/01/17 01:26:34;;;;;;;62.43;22.90;;;-14.80;70.00;;;;;;4959058;28;20027;-85
2021/01/17 01:29:00;;;;;;;58.43;21.27;;;-14.80;70.00;;;;;;4958545;28;20031;-84
2021/01/17 01:31:25;;;;;;;59.83;23.07;;;-14.80;69.90;;;;;;4973517;28;20055;-84
2021/01/17 01:33:57;;;;;;;56.63;20.73;;;-14.90;69.90;;;;;;4956669;29;20030;-85
2021/01/17 01:36:31;;;;;;;57.03;21.65;;;-14.80;69.90;;;;;;4955965;29;20027;-85
2021/01/17 01:38:57;;;;;;;55.27;20.77;;;-14.80;70.00;;;;;;4953700;29;20413;-84
2021/01/17 01:41:30;;;;;;;56.53;20.57;;;-14.80;69.90;;;;;;4937333;29;20553;-83
2021/01/17 01:43:56;;;;;;;51.17;21.13;;;-14.90;69.90;;;;;;4954938;29;20031;-84
2021/01/17 01:46:25;;;;;;;53.30;20.37;;;-14.90;69.90;;;;;;4953262;29;20047;-84
2021/01/17 01:48:53;;;;;;;60.13;22.33;;;-14.90;69.90;;;;;;4953656;29;20031;-83
2021/01/17 01:51:19;;;;;;;61.00;22.23;;;-14.90;69.90;;;;;;4954862;29;20042;-83
2021/01/17 01:53:46;;;;;;;66.13;24.70;;;-14.90;70.60;;;;;;4954410;29;20031;-84
2021/01/17 01:56:14;;;;;;;71.67;26.73;;;-14.90;70.10;;;;;;4956128;29;20038;-85
2021/01/17 01:58:41;;;;;;;81.67;28.30;;;-14.80;70.20;;;;;;4953901;29;20143;-86
2021/01/17 02:01:08;;;;;;;79.67;29.00;;;-14.80;70.80;;;;;;4955738;29;20027;-86
2021/01/17 02:03:34;;;;;;;74.53;26.73;;;-14.80;70.20;;;;;;4954965;29;20557;-86
2021/01/17 02:06:00;;;;;;;66.20;25.60;;;-14.80;70.20;;;;;;4957227;28;20057;-85
2021/01/17 02:09:03;;;;;;;61.87;23.53;;;-14.80;70.10;;;;;;4960403;29;20035;-85
2021/01/17 02:11:32;;;;;;;;;;;-14.90;70.00;;;;;;4958734;29;20083;-85
2021/01/17 02:14:12;;;;;;;78.73;30.37;;;-14.90;70.10;;;;;;4958499;29;19907;-86
2021/01/17 02:16:40;;;;;;;72.23;26.57;;;-14.90;70.00;;;;;;4958705;29;20029;-86
2021/01/17 02:19:08;;;;;;;74.00;26.43;;;-14.90;70.00;;;;;;4959186;29;20102;-86
2021/01/17 02:21:37;;;;;;;71.00;27.00;;;-14.90;70.10;;;;;;4958916;29;20053;-85
2021/01/17 02:24:12;;;;;;;65.90;25.03;;;-15.00;70.10;;;;;;4959042;29;20114;-85
2021/01/17 02:26:41;;;;;;;66.17;24.97;;;-14.90;70.30;;;;;;4957818;29;20027;-85
2021/01/17 02:29:08;;;;;;;70.33;26.47;;;-14.90;70.30;;;;;;4959091;29;20047;-86
2021/01/17 02:31:36;;;;;;;67.20;26.07;;;-14.90;70.30;;;;;;4961630;28;20101;-86
2021/01/17 02:34:04;;;;;;;67.27;26.53;;;-14.90;70.40;;;;;;4980857;28;20033;-84
2021/01/17 02:36:38;;;;;;;69.80;26.33;;;-14.90;70.30;;;;;;4993745;28;20051;-84
2021/01/17 02:39:04;;;;;;;70.60;26.13;;;-14.90;70.40;;;;;;4996257;28;20033;-86
2021/01/17 02:41:44;;;;;;;65.63;25.20;;;-14.90;70.40;;;;;;4981232;28;20094;-88
2021/01/17 02:44:10;;;;;;;73.87;29.77;;;-15.00;70.30;;;;;;4978443;28;20022;-88
2021/01/17 02:46:36;;;;;;;71.60;27.40;;;-14.90;70.40;;;;;;4978024;28;20031;-85
2021/01/17 02:49:01;;;;;;;69.20;27.90;;;-15.00;70.30;;;;;;4960979;28;20372;-85
2021/01/17 02:51:27;;;;;;;71.00;26.77;;;-15.00;70.20;;;;;;4977804;28;20027;-86
2021/01/17 02:53:59;;;;;;;76.63;27.37;;;-15.00;70.20;;;;;;4976582;28;20520;-84
2021/01/17 02:56:30;;;;;;;77.93;28.20;;;-15.00;70.20;;;;;;4976656;28;20425;-85
2021/01/17 02:58:58;;;;;;;68.73;23.87;;;-15.10;70.10;;;;;;4976179;28;20038;-86
2021/01/17 03:01:29;;;;;;;60.40;21.53;;;-15.10;70.10;;;;;;4975991;28;20069;-86
2021/01/17 03:04:10;;;;;;;60.00;22.80;;;-15.10;70.10;;;;;;4975783;28;20215;-86
2021/01/17 03:06:39;;;;;;;86.47;32.73;;;-15.10;70.20;;;;;;4959120;28;20082;-86
2021/01/17 03:09:06;;;;;;;96.00;36.43;;;-15.10;70.20;;;;;;4976283;28;20030;-85
2021/01/17 03:11:32;;;;;;;105.77;35.57;;;-15.20;70.10;;;;;;4976022;28;20027;-84
2021/01/17 03:13:58;;;;;;;106.77;37.23;;;-15.20;70.20;;;;;;4975809;28;20030;-84
2021/01/17 03:16:24;;;;;;;109.50;39.33;;;-15.20;70.10;;;;;;4959781;28;20052;-86
2021/01/17 03:18:49;;;;;;;105.67;36.13;;;-15.30;70.10;;;;;;4975359;28;20122;-86
2021/01/17 03:21:15;;;;;;;126.03;41.20;;;-15.30;70.00;;;;;;4977123;28;20026;-85
2021/01/17 03:23:41;;;;;;;116.80;40.47;;;-15.30;70.00;;;;;;4959600;28;20113;-84
2021/01/17 03:26:06;;;;;;;124.93;41.37;;;-15.40;69.90;;;;;;4976013;28;20023;-84
2021/01/17 03:28:32;;;;;;;114.77;40.57;;;-15.40;70.00;;;;;;4975741;28;20026;-84
2021/01/17 03:30:58;;;;;;;112.47;39.30;;;-15.50;69.90;;;;;;4975715;28;20027;-84
2021/01/17 03:33:24;;;;;;;115.03;38.27;;;-15.50;69.90;;;;;;4975290;28;20046;-86
2021/01/17 03:35:50;;;;;;;99.00;36.90;;;-15.50;69.90;;;;;;4975419;28;20090;-86
2021/01/17 03:38:16;;;;;;;115.80;39.93;;;-15.60;69.80;;;;;;4974739;28;20059;-86
2021/01/17 03:40:42;;;;;;;106.27;37.27;;;-15.60;69.80;;;;;;4975496;28;20030;-87
2021/01/17 03:43:08;;;;;;;95.70;35.67;;;-15.70;69.80;;;;;;4975563;28;20019;-86
2021/01/17 03:45:33;;;;;;;103.53;36.23;;;-15.70;69.90;;;;;;4975290;28;20026;-86
2021/01/17 03:47:59;;;;;;;99.97;35.40;;;-15.70;69.90;;;;;;4976526;28;20548;-86
2021/01/17 03:50:25;;;;;;;99.77;33.63;;;-15.70;69.90;;;;;;4975100;28;20054;-86
2021/01/17 03:52:50;;;;;;;102.93;34.10;;;-15.80;69.90;;;;;;4959187;28;20030;-87
2021/01/17 03:55:16;;;;;;;132.53;46.97;;;-15.80;69.90;;;;;;4974608;28;20418;-87
2021/01/17 03:57:42;;;;;;;107.23;37.47;;;-15.80;69.90;;;;;;4975050;28;20065;-87
2021/01/17 04:00:08;;;;;;;101.53;35.30;;;-15.80;69.90;;;;;;4975914;28;20111;-87
2021/01/17 04:02:34;;;;;;;97.50;33.83;;;-15.90;69.90;;;;;;4975366;28;20113;-90
2021/01/17 04:04:59;;;;;;;95.77;33.70;;;-15.90;69.90;;;;;;4975011;28;20125;-87
2021/01/17 04:07:28;;;;;;;96.43;35.00;;;-15.90;69.90;;;;;;4974979;28;20045;-87
2021/01/17 04:09:53;;;;;;;102.27;34.67;;;-15.90;69.90;;;;;;4974546;28;20034;-87
2021/01/17 04:12:19;;;;;;;91.80;33.03;;;-15.90;69.80;;;;;;4974536;28;20023;-86
2021/01/17 04:14:45;;;;;;;84.33;30.80;;;-16.00;69.70;;;;;;4976514;28;20030;-86
2021/01/17 04:17:11;;;;;;;90.30;32.40;;;-16.00;69.70;;;;;;4974563;28;20071;-86
2021/01/17 04:19:36;;;;;;;85.93;30.63;;;-16.10;69.60;;;;;;4974673;28;20022;-87
2021/01/17 04:22:02;;;;;;;87.47;33.13;;;-16.10;69.60;;;;;;4958402;28;20034;-86
2021/01/17 04:24:29;;;;;;;98.23;34.37;;;-16.10;69.60;;;;;;4974309;28;20026;-87
2021/01/17 04:26:59;;;;;;;93.83;33.93;;;-16.20;69.60;;;;;;4974598;28;20027;-88
2021/01/17 04:29:25;;;;;;;98.90;34.60;;;-16.20;69.60;;;;;;4974831;28;20086;-88
2021/01/17 04:31:52;;;;;;;90.70;32.63;;;-16.30;69.60;;;;;;4976585;28;20046;-88
2021/01/17 04:34:18;;;;;;;85.57;32.43;;;-16.30;69.70;;;;;;4974552;28;20038;-87
2021/01/17 04:36:47;;;;;;;83.63;30.57;;;-16.30;69.80;;;;;;4979012;28;20027;-86
2021/01/17 04:39:13;;;;;;;94.87;32.67;;;-16.30;69.90;;;;;;4978972;28;20109;-88
2021/01/17 04:41:42;;;;;;;82.10;30.37;;;-16.30;69.90;;;;;;4959117;28;20030;-89
2021/01/17 04:44:10;;;;;;;74.20;27.27;;;-16.30;70.00;;;;;;4981084;28;20027;-84
2021/01/17 04:46:38;;;;;;;79.60;27.80;;;-16.30;70.00;;;;;;4976528;28;20023;-85
2021/01/17 04:49:09;;;;;;;78.20;30.23;;;-16.30;70.00;;;;;;4974381;28;20030;-85
2021/01/17 04:51:35;;;;;;;85.17;31.13;;;-16.30;70.10;;;;;;4974420;28;20026;-86
2021/01/17 04:54:03;;;;;;;79.57;29.40;;;-16.30;70.10;;;;;;4974547;28;20030;-85
2021/01/17 04:56:44;;;;;;;76.87;27.63;;;-16.20;70.20;;;;;;4975540;28;20106;-85
2021/01/17 04:59:13;;;;;;;78.77;27.10;;;-16.20;70.20;;;;;;4975266;28;20381;-84
2021/01/17 05:01:47;;;;;;;77.77;26.50;;;-16.20;70.20;;;;;;4975378;28;20023;-84
2021/01/17 05:04:34;;;;;;;67.90;25.53;;;-16.20;70.10;;;;;;4973664;28;20034;-84
2021/01/17 05:07:07;;;;;;;70.27;25.60;;;-16.20;70.10;;;;;;4947928;28;20121;-85
2021/01/17 05:09:39;;;;;;;77.17;27.43;;;-16.20;70.10;;;;;;4973686;28;20130;-84
2021/01/17 05:12:12;;;;;;;;;;;-16.20;70.10;;;;;;4974489;28;20130;-84
2021/01/17 05:14:51;;;;;;;66.33;27.80;;;-16.20;70.10;;;;;;4973619;28;19906;-85
2021/01/17 05:17:27;;;;;;;69.83;25.20;;;-16.20;70.10;;;;;;4972462;28;20031;-85
2021/01/17 05:19:52;;;;;;;71.33;25.00;;;-16.20;70.10;;;;;;4973910;28;20133;-85
2021/01/17 05:22:21;;;;;;;79.37;26.53;;;-16.30;70.20;;;;;;4973815;28;20521;-85
2021/01/17 05:24:55;;;;;;;73.50;28.70;;;-16.20;70.30;;;;;;4977625;28;20034;-94
2021/01/17 05:27:21;;;;;;;84.83;30.90;;;-16.20;70.30;;;;;;4989452;28;20078;-94
2021/01/17 05:29:47;;;;;;;116.30;40.13;;;-16.20;70.40;;;;;;4972460;28;20027;-94
2021/01/17 05:32:15;;;;;;;128.40;45.40;;;-16.20;70.40;;;;;;4987647;28;20055;-91
2021/01/17 05:34:41;;;;;;;93.97;33.00;;;-16.20;70.40;;;;;;4978112;28;20023;-93
2021/01/17 05:37:14;;;;;;;92.07;34.17;;;-16.20;70.40;;;;;;4977227;28;20027;-93
2021/01/17 05:39:55;;;;;;;96.77;33.80;;;-16.20;70.40;;;;;;4977390;28;20105;-92
2021/01/17 05:42:22;;;;;;;90.63;35.33;;;-16.20;70.50;;;;;;4981349;28;20031;-94
2021/01/17 05:44:48;;;;;;;103.30;35.27;;;-16.10;70.60;;;;;;4982239;28;20109;-94
2021/01/17 05:47:18;;;;;;;95.87;36.20;;;-16.10;70.70;;;;;;4983245;28;20065;-93
2021/01/17 05:49:44;;;;;;;119.33;41.17;;;-16.00;70.90;;;;;;4980898;28;20037;-93
2021/01/17 05:52:15;;;;;;;114.87;38.30;;;-15.90;71.00;;;;;;4980617;28;20121;-93
2021/01/17 05:54:43;;;;;;;128.63;42.20;;;-15.90;71.20;;;;;;4971137;28;20027;-93
2021/01/17 05:57:13;;;;;;;136.47;42.93;;;-15.70;71.60;;;;;;4987886;28;20031;-91
2021/01/17 05:59:39;;;;;;;132.93;42.40;;;-15.50;72.40;;;;;;4987840;28;20031;-93
2021/01/17 06:02:19;;;;;;;109.33;39.67;;;-15.20;73.20;;;;;;4986011;28;20031;-93
2021/01/17 06:05:09;;;;;;;131.10;44.27;;;-14.80;73.80;;;;;;4979642;28;20039;-93
2021/01/17 06:07:35;;;;;;;132.67;44.97;;;-14.40;74.20;;;;;;4963805;28;20042;-93
2021/01/17 06:10:05;;;;;;;124.30;44.40;;;-13.90;74.70;;;;;;4978810;28;20478;-92
2021/01/17 06:12:40;;;;;;;150.43;49.70;;;-13.50;75.10;;;;;;4979874;28;20022;-92
2021/01/17 06:15:11;;;;;;;129.90;47.77;;;-13.00;75.40;;;;;;4979649;28;20358;-92
2021/01/17 06:17:57;;;;;;;127.33;45.50;;;-12.50;75.80;;;;;;4978777;28;20030;-92
2021/01/17 06:20:27;;;;;;;112.23;43.60;;;-11.90;76.10;;;;;;4980017;28;20038;-92
2021/01/17 06:22:58;;;;;;;126.17;43.50;;;-11.40;76.20;;;;;;4979640;28;20139;-92
2021/01/17 06:25:28;;;;;;;99.67;38.17;;;-10.90;76.50;;;;;;4979192;28;20019;-94
2021/01/17 06:28:11;;;;;;;91.00;38.00;;;-10.30;76.60;;;;;;4979526;28;20099;-94
2021/01/17 06:30:38;;;;;;;111.90;42.03;;;-9.80;76.60;;;;;;4979708;28;20042;-93
2021/01/17 06:33:05;;;;;;;114.17;44.30;;;-9.30;76.50;;;;;;4961952;28;20050;-94
2021/01/17 06:35:37;;;;;;;112.00;42.30;;;-8.90;76.10;;;;;;4961819;28;20030;-92
2021/01/17 06:38:15;;;;;;;121.38;47.20;;;-8.50;75.90;;;;;;4978599;28;20095;-92
2021/01/17 06:40:43;;;;;;;109.10;40.10;;;-8.00;75.50;;;;;;4977894;28;20042;-92
2021/01/17 06:43:13;;;;;;;106.07;41.45;;;-7.60;75.50;;;;;;4977735;28;20023;-92
2021/01/17 06:45:44;;;;;;;139.23;48.10;;;-7.30;75.10;;;;;;4977818;28;20107;-92
2021/01/17 06:48:24;;;;;;;126.28;51.28;;;-6.90;74.60;;;;;;4977581;28;20071;-94
2021/01/17 06:50:50;;;;;;;117.05;48.78;;;-6.50;74.20;;;;;;4979458;28;20031;-94
2021/01/17 06:53:26;;;;;;;134.32;54.85;;;-6.20;73.80;;;;;;4979925;28;20038;-94
2021/01/17 06:56:15;;;;;;;133.00;51.03;;;-5.80;73.50;;;;;;4978951;28;20147;-94
2021/01/17 06:58:44;;;;;;;139.45;53.20;;;-5.50;72.80;;;;;;4983147;28;20090;-92
2021/01/17 07:01:10;;;;;;;146.10;55.30;;;-5.20;72.30;;;;;;4977742;28;20345;-93
2021/01/17 07:04:06;;;;;;;137.77;56.30;;;-5.00;71.70;;;;;;4977027;28;20026;-92
2021/01/17 07:06:56;;;;;;;138.55;53.30;;;-4.80;70.90;;;;;;4977196;28;20367;-91
2021/01/17 07:09:40;;;;;;;141.40;54.67;;;-4.60;70.10;;;;;;4977200;28;20022;-90
2021/01/17 07:12:12;;;;;;;140.73;56.53;;;-4.50;69.10;;;;;;4976871;28;20039;-91
2021/01/17 07:14:41;;;;;;;135.85;53.42;;;-4.50;68.30;;;;;;4979376;28;20023;-90
2021/01/17 07:17:09;;;;;;;129.93;53.92;;;-4.40;67.40;;;;;;4976875;28;20045;-85
2021/01/17 07:19:45;;;;;;;148.90;57.72;;;-4.40;66.90;;;;;;4975727;28;20030;-86
2021/01/17 07:22:16;;;;;;;136.00;56.30;;;-4.30;66.20;;;;;;4977098;28;20031;-86
2021/01/17 07:24:46;;;;;;;135.02;55.22;;;-4.20;65.70;;;;;;4959365;28;20022;-86
2021/01/17 07:27:57;;;;;;;134.10;53.75;;;-4.00;65.30;;;;;;4975373;28;20023;-85
2021/01/17 07:30:48;;;;;;;132.55;55.28;;;-3.90;64.70;;;;;;4975079;28;20485;-85
2021/01/17 07:33:26;;;;;;;134.50;55.35;;;-3.70;64.50;;;;;;4954103;28;20874;-85
2021/01/17 07:35:53;;;;;;;121.43;52.15;;;-3.50;64.50;;;;;;4975281;28;20026;-87
2021/01/17 07:38:20;;;;;;;119.88;51.35;;;-3.30;63.90;;;;;;4976877;28;20042;-88
2021/01/17 07:41:01;;;;;;;116.35;50.60;;;-3.10;63.70;;;;;;4977105;28;20422;-87
2021/01/17 07:43:35;;;;;;;113.25;50.83;;;-2.90;62.90;;;;;;4976799;28;20027;-87
2021/01/17 07:46:05;;;;;;;118.85;50.92;;;-2.80;62.50;;;;;;4959349;28;20397;-87
2021/01/17 07:48:40;;;;;;;114.60;48.45;;;-2.60;61.90;;;;;;4976615;28;20098;-86
2021/01/17 07:51:14;;;;;;;114.75;48.97;;;-2.50;61.50;;;;;;4975194;28;20062;-85
2021/01/17 07:53:54;;;;;;;114.10;48.75;;;-2.30;61.00;;;;;;4976262;28;20027;-87
2021/01/17 07:56:32;;;;;;;109.28;49.53;;;-2.20;60.50;;;;;;4976346;28;20086;-86
2021/01/17 07:59:05;;;;;;;113.00;48.55;;;-2.10;60.00;;;;;;4974713;28;20485;-90
2021/01/17 08:01:34;;;;;;;111.43;48.13;;;-1.90;59.80;;;;;;4958929;28;20029;-86
2021/01/17 08:04:13;;;;;;;116.88;49.03;;;-1.80;59.50;;;;;;4974675;28;20026;-86
2021/01/17 08:06:42;;;;;;;116.50;51.10;;;-1.70;58.90;;;;;;4975130;28;20060;-89
2021/01/17 08:09:16;;;;;;;116.05;48.88;;;-1.60;58.50;;;;;;4979302;28;20110;-90
2021/01/17 08:11:44;;;;;;;103.70;46.80;;;-1.50;58.10;;;;;;4976936;28;20434;-92
2021/01/17 08:14:27;;;;;;;99.68;45.47;;;-1.40;57.90;;;;;;4976804;28;20031;-89
2021/01/17 08:17:17;;;;;;;100.97;42.92;;;-1.30;57.40;;;;;;4960965;28;20027;-91
2021/01/17 08:19:46;;;;;;;101.20;46.60;;;-1.20;57.10;;;;;;4976574;28;20083;-89
2021/01/17 08:22:17;;;;;;;88.10;39.70;;;-1.00;56.90;;;;;;4979468;28;20023;-91
2021/01/17 08:24:46;;;;;;;85.45;39.22;;;-0.90;56.40;;;;;;4976770;28;20034;-90
2021/01/17 08:27:33;;;;;;;92.40;38.72;;;-0.80;56.30;;;;;;4976592;28;20027;-91
2021/01/17 08:32:55;;;;;;;85.57;39.47;;;-0.60;55.40;;;;;;4976463;28;20055;-90
2021/01/17 08:35:21;;;;;;;80.10;37.13;;;-0.50;54.90;;;;;;4977399;28;20031;-91
2021/01/17 08:37:54;;;;;;;81.07;37.38;;;-0.40;54.60;;;;;;4960355;28;20054;-91
2021/01/17 08:40:29;;;;;;;76.93;37.80;;;-0.40;54.20;;;;;;4961332;28;20027;-91
2021/01/17 08:42:57;;;;;;;86.25;37.15;;;-0.40;53.60;;;;;;4978317;28;20058;-90
2021/01/17 08:45:22;;;;;;;79.82;38.00;;;-0.30;53.40;;;;;;4959479;28;20042;-91
2021/01/17 08:47:50;;;;;;;78.43;38.63;;;-0.30;53.10;;;;;;4959938;28;20098;-92
2021/01/17 08:50:37;;;;;;;74.70;36.88;;;-0.20;52.80;;;;;;4960983;28;20031;-91
2021/01/17 08:53:11;;;;;;;72.80;35.67;;;-0.20;52.40;;;;;;4960138;28;20026;-87
2021/01/17 08:55:41;;;;;;;76.65;36.40;;;0.00;52.30;;;;;;4975980;28;20026;-87
2021/01/17 08:58:08;;;;;;;78.13;36.63;;;0.10;52.00;;;;;;4976415;28;20039;-89
2021/01/17 09:00:49;;;;;;;69.20;34.35;;;0.20;51.80;;;;;;4975851;28;20454;-89
2021/01/17 09:03:24;;;;;;;84.65;37.15;;;0.30;51.30;;;;;;4958236;28;20022;-87
2021/01/17 09:05:55;;;;;;;85.22;37.53;;;0.40;50.90;;;;;;4957917;28;20041;-82
2021/01/17 09:08:21;;;;;;;75.57;36.20;;;0.50;50.60;;;;;;4978187;28;20114;-80
2021/01/17 09:10:47;;;;;;;74.35;35.38;;;0.60;50.40;;;;;;4961985;28;20389;-83
2021/01/17 09:13:27;;;;;;;71.43;35.08;;;0.70;50.10;;;;;;4965468;28;20030;-79
2021/01/17 09:16:02;;;;;;;80.35;37.35;;;0.80;49.50;;;;;;4980820;28;20037;-83
2021/01/17 09:18:30;;;;;;;64.70;31.20;;;0.90;49.50;;;;;;4974880;28;20393;-82
2021/01/17 09:20:57;;;;;;;67.65;33.80;;;1.10;49.20;;;;;;4974154;28;20026;-82
2021/01/17 09:23:23;;;;;;;76.68;39.47;;;1.10;48.80;;;;;;4976602;28;20074;-82
2021/01/17 09:25:58;;;;;;;68.57;33.83;;;1.20;48.50;;;;;;4974165;28;20118;-81
2021/01/17 09:28:25;;;;;;;64.20;31.38;;;1.30;48.20;;;;;;4973837;28;20055;-82
2021/01/17 09:30:53;;;;;;;64.38;31.70;;;1.30;47.90;;;;;;4973854;28;20065;-81
2021/01/17 09:33:35;;;;;;;63.40;29.80;;;1.40;47.70;;;;;;4978929;28;20055;-82
2021/01/17 09:36:01;;;;;;;60.92;30.00;;;1.40;47.20;;;;;;4974348;28;20042;-83
2021/01/17 09:38:31;;;;;;;56.72;27.85;;;1.50;47.30;;;;;;4956636;28;20405;-81
2021/01/17 09:41:24;;;;;;;50.92;25.70;;;1.60;47.10;;;;;;4972477;28;20031;-84
2021/01/17 09:43:50;;;;;;;;;;;1.70;46.50;;;;;;4971845;28;20105;-83
2021/01/17 09:46:21;;;;;;;53.65;26.35;;;1.80;47.10;;;;;;4973846;28;20017;-82
2021/01/17 09:48:58;;;;;;;53.20;26.83;;;1.90;46.80;;;;;;4973917;28;20033;-81
2021/01/17 09:51:25;;;;;;;52.22;24.98;;;1.90;46.40;;;;;;4973886;28;20023;-81
2021/01/17 09:53:53;;;;;;;50.53;25.65;;;1.80;46.30;;;;;;4974795;28;20069;-79
2021/01/17 09:56:27;;;;;;;53.10;25.20;;;1.60;46.80;;;;;;4973911;28;20110;-82
2021/01/17 09:58:53;;;;;;;46.05;22.73;;;1.40;46.00;;;;;;4972775;28;20389;-81
2021/01/17 10:01:20;;;;;;;45.50;23.33;;;1.20;46.00;;;;;;4957457;28;20027;-80
2021/01/17 10:03:47;;;;;;;47.63;22.65;;;1.00;46.00;;;;;;4974364;28;20023;-82
2021/01/17 10:06:14;;;;;;;51.65;24.75;;;0.90;45.90;;;;;;4958383;28;20019;-80
2021/01/17 10:08:40;;;;;;;72.13;34.47;;;0.80;46.00;;;;;;4974397;28;20042;-82
2021/01/17 10:11:06;;;;;;;63.40;28.77;;;0.70;46.00;;;;;;4957482;28;20043;-82
2021/01/17 10:13:32;;;;;;;48.38;24.33;;;0.60;46.00;;;;;;4974544;28;20027;-81
2021/01/17 10:15:57;;;;;;;49.97;24.10;;;0.60;46.00;;;;;;4974237;28;20054;-81
2021/01/17 10:18:24;;;;;;;53.17;24.45;;;0.60;45.90;;;;;;4974638;28;20033;-82
2021/01/17 10:20:54;;;;;;;46.28;22.67;;;0.60;45.80;;;;;;4975551;28;20029;-83
2021/01/17 10:23:26;;;;;;;44.63;22.00;;;0.80;45.70;;;;;;4980386;28;20098;-81
2021/01/17 10:25:52;;;;;;;;;;;1.00;45.60;;;;;;4983565;28;20035;-81
2021/01/17 10:28:18;;;;;;;45.28;23.35;;;1.20;45.60;;;;;;4978148;28;19910;-80
2021/01/17 10:30:43;;;;;;;52.35;23.75;;;1.50;45.70;;;;;;4977138;28;20378;-81
2021/01/17 10:33:15;;;;;;;46.22;24.75;;;1.60;45.30;;;;;;4959686;28;20047;-81
2021/01/17 10:35:49;;;;;;;50.88;23.25;;;1.80;45.20;;;;;;4977185;28;20038;-81
2021/01/17 10:38:15;;;;;;;44.08;21.63;;;2.00;44.90;;;;;;4976542;28;20043;-79
2021/01/17 10:40:43;;;;;;;55.28;23.98;;;2.20;44.70;;;;;;4958854;28;20023;-80
2021/01/17 10:43:30;;;;;;;49.75;25.17;;;2.30;44.50;;;;;;4975923;28;20489;-79
2021/01/17 10:46:22;;;;;;;52.75;25.98;;;2.40;44.30;;;;;;4989332;28;20026;-78
2021/01/17 10:49:07;;;;;;;58.95;29.48;;;2.50;43.80;;;;;;4976325;28;20493;-79
2021/01/17 10:51:43;;;;;;;59.35;29.42;;;2.70;43.90;;;;;;4980663;28;20038;-79
2021/01/17 10:54:21;;;;;;;49.83;25.45;;;2.70;43.70;;;;;;4985183;28;20113;-80
2021/01/17 10:56:47;;;;;;;52.22;27.52;;;2.80;44.20;;;;;;4975745;28;20466;-81
2021/01/17 10:59:13;;;;;;;50.35;26.52;;;2.80;43.50;;;;;;4975774;28;20037;-80
2021/01/17 11:01:45;;;;;;;60.83;28.33;;;2.90;43.30;;;;;;4975654;28;20381;-80
2021/01/17 11:04:13;;;;;;;66.60;27.55;;;2.80;43.00;;;;;;4975798;28;20023;-81
2021/01/17 11:06:39;;;;;;;53.92;27.48;;;2.80;42.90;;;;;;4975871;28;20055;-79
2021/01/17 11:09:12;;;;;;;61.08;28.65;;;2.60;42.60;;;;;;4976033;28;20070;-80
2021/01/17 11:11:50;;;;;;;58.33;28.75;;;2.30;42.60;;;;;;4975825;28;20031;-79
2021/01/17 11:14:25;;;;;;;53.13;24.92;;;2.00;42.50;;;;;;4975353;28;20054;-80
2021/01/17 11:16:53;;;;;;;50.95;24.10;;;1.50;42.50;;;;;;4974411;28;20049;-81
2021/01/17 11:19:19;;;;;;;50.97;22.45;;;1.20;42.90;;;;;;4975703;28;20026;-80
2021/01/17 11:21:46;;;;;;;50.83;24.60;;;0.90;43.00;;;;;;4974075;28;20027;-80
2021/01/17 11:24:13;;;;;;;47.25;24.08;;;0.60;43.00;;;;;;4975212;28;20027;-80
2021/01/17 11:26:39;;;;;;;49.08;24.45;;;0.30;43.60;;;;;;4974832;28;20033;-78
2021/01/17 11:29:07;;;;;;;54.92;26.02;;;0.20;43.20;;;;;;4974750;28;20070;-83
2021/01/17 11:31:35;;;;;;;50.42;25.20;;;0.10;43.20;;;;;;4973371;28;20501;-82
2021/01/17 11:34:14;;;;;;;56.90;27.83;;;0.10;43.20;;;;;;4974909;28;20027;-77
2021/01/17 11:36:41;;;;;;;48.97;23.50;;;0.10;43.20;;;;;;4974677;28;20033;-76
2021/01/17 11:39:07;;;;;;;45.65;23.55;;;0.10;43.40;;;;;;4973269;28;20109;-77
2021/01/17 11:41:37;;;;;;;48.15;23.73;;;0.30;43.20;;;;;;4974031;28;20074;-77
2021/01/17 11:44:24;;;;;;;49.90;24.40;;;0.30;43.00;;;;;;4974235;28;20019;-80
2021/01/17 11:46:50;;;;;;;46.97;22.30;;;0.30;43.10;;;;;;4974027;28;20039;-80
2021/01/17 11:49:23;;;;;;;50.78;23.63;;;0.30;43.30;;;;;;4974101;28;20061;-78
2021/01/17 11:51:51;;;;;;;44.85;23.85;;;0.30;43.50;;;;;;4974527;28;20027;-81
2021/01/17 11:54:21;;;;;;;56.28;26.75;;;0.20;43.70;;;;;;4972805;28;20027;-77
2021/01/17 11:56:48;;;;;;;51.70;24.40;;;0.10;43.70;;;;;;4974327;28;20027;-80
2021/01/17 11:59:34;;;;;;;50.42;22.15;;;0.00;43.50;;;;;;4974007;28;20023;-79
2021/01/17 12:02:20;;;;;;;59.42;25.40;;;-0.20;43.00;;;;;;4974205;28;20022;-78
2021/01/17 12:04:54;;;;;;;47.63;21.67;;;-0.30;42.80;;;;;;4974420;28;20027;-79
2021/01/17 12:07:20;;;;;;;56.05;22.30;;;-0.40;42.80;;;;;;4972857;28;20023;-78
2021/01/17 12:09:46;;;;;;;55.63;23.30;;;-0.60;42.90;;;;;;4974247;28;20038;-78
2021/01/17 12:12:13;;;;;;;58.83;27.65;;;-0.80;43.00;;;;;;4974620;28;20488;-78
2021/01/17 12:14:39;;;;;;;60.75;27.02;;;-1.10;42.90;;;;;;4974441;28;20047;-79
2021/01/17 12:17:06;;;;;;;44.83;23.02;;;-1.40;43.10;;;;;;4973789;28;20054;-79
2021/01/17 12:19:34;;;;;;;55.40;24.52;;;-1.70;43.40;;;;;;4973604;28;20135;-78
2021/01/17 12:22:01;;;;;;;45.85;20.95;;;-2.00;43.60;;;;;;4974047;28;20169;-77
2021/01/17 12:24:27;;;;;;;50.33;20.92;;;-2.30;43.70;;;;;;4973268;28;20094;-78
2021/01/17 12:26:54;;;;;;;50.22;21.80;;;-2.50;43.90;;;;;;4973413;28;20033;-77
2021/01/17 12:29:21;;;;;;;55.13;20.67;;;-2.80;44.20;;;;;;4973715;28;20037;-77
2021/01/17 12:31:48;;;;;;;50.33;18.58;;;-2.90;44.50;;;;;;4973395;28;20102;-78
2021/01/17 12:34:13;;;;;;;37.40;17.20;;;-3.10;44.80;;;;;;4973158;28;20026;-78
2021/01/17 12:36:41;;;;;;;45.42;18.60;;;-3.30;44.70;;;;;;4973412;28;20023;-79
2021/01/17 12:39:09;;;;;;;43.92;18.92;;;-3.50;44.90;;;;;;4973725;28;20058;-78
2021/01/17 12:41:40;;;;;;;44.40;17.20;;;-3.60;45.00;;;;;;4973215;28;20030;-79